Time;durP1;ratioP1;P1;durP2;ratioP2;P2;SDS_P1;SDS_P2;PMS_P1;PMS_P2;Temp;Humidity;BMP_temperature;BMP_pressure;BME280_temperature;BME280_humidity;BME280_pressure;Samples;Min_cycle;Max_cycle;Signal;HPM_P1;HPM_P2
2023/02/26 00:00:25;;;;;;;0.60;0.60;;;;;;;-0.46;73.04;96324.25;29373;213;63009;-60
2023/02/26 00:00:56;;;;;;;0.70;0.70;;;;;;;-0.47;73.03;96316.50;29373;251;63005;-60
2023/02/26 00:01:30;;;;;;;0.65;0.65;;;;;;;-0.45;73.40;96319.72;29373;225;63009;-61
2023/02/26 00:02:04;;;;;;;0.70;0.70;;;;;;;-0.46;73.54;96324.25;29373;266;63005;-60
2023/02/26 00:02:35;;;;;;;0.60;0.60;;;;;;;-0.48;72.94;96321.00;29373;263;63009;-61
2023/02/26 00:03:06;;;;;;;0.60;0.60;;;;;;;-0.51;72.76;96320.69;29373;206;63017;-62
2023/02/26 00:03:38;;;;;;;0.60;0.60;;;;;;;-0.50;72.97;96327.63;29371;241;64013;-62
2023/02/26 00:04:10;;;;;;;0.60;0.60;;;;;;;-0.51;73.17;96318.00;29373;210;63010;-61
2023/02/26 00:04:42;;;;;;;0.60;0.60;;;;;;;-0.47;73.66;96327.16;29373;242;63009;-61
2023/02/26 00:05:16;;;;;;;0.70;0.70;;;;;;;-0.37;72.34;96322.03;29373;202;63010;-61
2023/02/26 00:05:47;;;;;;;0.60;0.60;;;;;;;-0.43;72.72;96323.78;29373;258;63008;-61
2023/02/26 00:06:19;;;;;;;0.65;0.65;;;;;;;-0.48;72.75;96321.00;29373;237;63004;-61
2023/02/26 00:06:54;;;;;;;0.60;0.60;;;;;;;-0.55;73.54;96319.53;29373;218;63009;-59
2023/02/26 00:07:28;;;;;;;0.80;0.80;;;;;;;-0.58;73.63;96326.13;29373;214;63005;-60
2023/02/26 00:07:59;;;;;;;0.70;0.70;;;;;;;-0.59;73.10;96323.69;29373;202;63009;-61
2023/02/26 00:08:30;;;;;;;0.60;0.60;;;;;;;-0.63;73.26;96322.56;29373;214;63005;-61
2023/02/26 00:09:03;;;;;;;0.60;0.60;;;;;;;-0.69;73.68;96330.44;29371;222;64013;-60
2023/02/26 00:09:35;;;;;;;0.70;0.70;;;;;;;-0.74;73.22;96325.03;29371;205;64009;-60
2023/02/26 00:10:10;;;;;;;0.70;0.70;;;;;;;-0.78;73.45;96321.22;29373;204;63009;-60
2023/02/26 00:10:41;;;;;;;0.68;0.68;;;;;;;-0.79;73.54;96319.59;29373;235;63004;-60
2023/02/26 00:11:13;;;;;;;0.70;0.70;;;;;;;-0.66;73.49;96318.50;29373;204;63009;-63
2023/02/26 00:11:46;;;;;;;0.60;0.60;;;;;;;-0.58;72.35;96320.00;29373;225;63004;-61
2023/02/26 00:12:18;;;;;;;0.60;0.60;;;;;;;-0.58;72.31;96315.47;29373;198;63016;-61
2023/02/26 00:12:50;;;;;;;0.70;0.70;;;;;;;-0.59;72.26;96323.69;29373;205;63004;-61
2023/02/26 00:13:22;;;;;;;0.60;0.60;;;;;;;-0.65;72.70;96322.78;29373;219;63008;-60
2023/02/26 00:13:55;;;;;;;0.60;0.60;;;;;;;-0.67;72.94;96323.03;29373;270;63004;-60
2023/02/26 00:14:27;;;;;;;0.70;0.70;;;;;;;-0.67;72.91;96327.53;29371;202;64014;-62
2023/02/26 00:14:59;;;;;;;0.62;0.62;;;;;;;-0.61;73.22;96325.78;29373;267;63005;-65
2023/02/26 00:15:32;;;;;;;0.70;0.70;;;;;;;-0.61;73.37;96333.78;29373;210;63016;-60
2023/02/26 00:16:09;;;;;;;0.60;0.60;;;;;;;-0.48;71.83;96320.19;29373;197;63005;-62
2023/02/26 00:16:50;;;;;;;0.70;0.70;;;;;;;-0.46;71.47;96318.91;29373;216;63009;-61
2023/02/26 00:18:03;;;;;;;0.60;0.60;;;;;;;-0.55;72.25;96323.00;29373;214;63005;-61
2023/02/26 00:18:35;;;;;;;0.60;0.60;;;;;;;-0.51;72.39;96331.34;29371;239;64013;-65
2023/02/26 00:19:10;;;;;;;0.70;0.70;;;;;;;-0.41;71.18;96316.34;29372;222;64004;-61
2023/02/26 00:19:42;;;;;;;0.70;0.70;;;;;;;-0.37;71.42;96322.03;29373;231;63009;-63
2023/02/26 00:20:15;;;;;;;0.70;0.70;;;;;;;-0.31;70.67;96315.72;29373;213;63004;-60
2023/02/26 00:20:47;;;;;;;0.70;0.70;;;;;;;-0.26;70.03;96307.81;29371;202;64013;-61
2023/02/26 00:21:21;;;;;;;0.70;0.70;;;;;;;-0.34;70.13;96309.00;29373;219;63005;-61
2023/02/26 00:21:53;;;;;;;0.60;0.60;;;;;;;-0.35;70.85;96314.59;29373;220;63016;-61
2023/02/26 00:22:25;;;;;;;0.60;0.60;;;;;;;-0.29;70.38;96313.63;29373;214;63005;-61
2023/02/26 00:22:58;;;;;;;0.70;0.70;;;;;;;-0.33;70.39;96312.47;29373;238;63014;-60
2023/02/26 00:23:30;;;;;;;0.60;0.60;;;;;;;-0.37;70.55;96316.69;29373;226;63005;-66
2023/02/26 00:24:02;;;;;;;0.60;0.60;;;;;;;-0.40;71.18;96319.84;29373;225;63025;-61
2023/02/26 00:24:33;;;;;;;0.60;0.60;;;;;;;-0.44;71.39;96321.34;29373;239;63005;-63
2023/02/26 00:25:05;;;;;;;0.60;0.60;;;;;;;-0.48;71.40;96320.19;29371;262;64013;-61
2023/02/26 00:25:36;;;;;;;0.70;0.70;;;;;;;-0.57;71.24;96322.41;29371;207;64009;-61
2023/02/26 00:26:09;;;;;;;0.60;0.60;;;;;;;-0.62;71.45;96319.66;29373;199;63009;-61
2023/02/26 00:26:40;;;;;;;0.60;0.60;;;;;;;-0.68;71.70;96324.06;29372;202;64004;-60
2023/02/26 00:27:12;;;;;;;0.60;0.60;;;;;;;-0.71;72.08;96327.22;29373;224;63009;-61
2023/02/26 00:27:44;;;;;;;0.60;0.60;;;;;;;-0.63;71.80;96322.56;29373;214;63004;-60
2023/02/26 00:28:16;;;;;;;0.62;0.62;;;;;;;-0.48;70.64;96309.53;29373;220;63008;-62
2023/02/26 00:28:50;;;;;;;1.17;1.17;;;;;;;-0.39;69.60;96308.94;29373;208;63005;-65
2023/02/26 00:29:22;;;;;;;0.60;0.60;;;;;;;-0.40;70.17;96311.84;29371;209;64014;-60
2023/02/26 00:29:54;;;;;;;0.65;0.65;;;;;;;-0.42;70.49;96313.94;29373;219;63001;-61
2023/02/26 00:30:26;;;;;;;0.60;0.60;;;;;;;-0.48;70.33;96310.34;29373;244;63009;-67
2023/02/26 00:30:58;;;;;;;0.60;0.60;;;;;;;-0.44;69.87;96308.03;29373;214;63004;-60
2023/02/26 00:31:30;;;;;;;0.70;0.70;;;;;;;-0.46;70.48;96312.78;29373;252;63009;-60
2023/02/26 00:32:02;;;;;;;0.60;0.60;;;;;;;-0.44;70.81;96321.34;29371;220;64000;-61
2023/02/26 00:32:35;;;;;;;0.60;0.60;;;;;;;-0.48;70.93;96318.34;29373;202;63009;-61
2023/02/26 00:33:07;;;;;;;0.70;0.70;;;;;;;-0.46;70.84;96318.91;29371;209;64009;-61
2023/02/26 00:33:39;;;;;;;0.60;0.60;;;;;;;-0.49;70.58;96313.25;29373;204;63009;-61
2023/02/26 00:34:12;;;;;;;0.70;0.70;;;;;;;-0.55;70.53;96308.88;29373;198;63007;-61
2023/02/26 00:34:48;;;;;;;0.70;0.70;;;;;;;-0.65;70.55;96320.13;29373;271;63009;-60
2023/02/26 00:35:20;;;;;;;0.70;0.70;;;;;;;-0.72;71.09;96317.63;29371;266;64008;-61
2023/02/26 00:35:56;;;;;;;0.60;0.60;;;;;;;-0.71;71.80;96324.56;29373;202;63008;-63
2023/02/26 00:36:48;;;;;;;0.65;0.65;;;;;;;-0.64;71.55;96323.59;29373;203;63005;-61
2023/02/26 00:38:09;;;;;;;0.60;0.60;;;;;;;-0.71;72.11;96319.22;29373;252;63017;-61
2023/02/26 00:38:46;;;;;;;1.65;1.15;;;;;;;-0.72;72.23;96324.78;29373;230;63009;-60
2023/02/26 00:39:39;;;;;;;0.60;0.60;;;;;;;-0.63;71.73;96322.56;29373;199;63005;-62
2023/02/26 00:40:56;;;;;;;0.60;0.60;;;;;;;-0.67;71.24;96317.69;29371;221;64013;-60
2023/02/26 00:41:28;;;;;;;0.60;0.60;;;;;;;-0.75;71.43;96323.41;29373;264;63004;-64
2023/02/26 00:42:01;;;;;;;0.60;0.60;;;;;;;-0.78;71.98;96321.22;29373;229;63009;-60
2023/02/26 00:42:32;;;;;;;0.70;0.70;;;;;;;-0.84;72.14;96322.16;29373;236;63004;-60
2023/02/26 00:43:06;;;;;;;0.60;0.60;;;;;;;-0.89;72.12;96330.03;29373;252;63008;-60
2023/02/26 00:43:38;;;;;;;0.70;0.70;;;;;;;-0.89;72.92;96327.37;29373;219;63005;-62
2023/02/26 00:44:10;;;;;;;2.55;2.45;;;;;;;-0.81;71.89;96332.34;29373;211;63009;-60
2023/02/26 00:44:44;;;;;;;0.70;0.70;;;;;;;-0.76;72.22;96328.97;29373;218;63008;-61
2023/02/26 00:45:16;;;;;;;0.70;0.70;;;;;;;-0.71;72.01;96321.91;29371;211;64013;-62
2023/02/26 00:46:20;;;;;;;0.62;0.62;;;;;;;-0.72;71.36;96325.59;29373;200;63005;-61
2023/02/26 00:47:42;;;;;;;0.70;0.70;;;;;;;-0.63;70.16;96323.38;29373;258;63009;-61
2023/02/26 00:48:51;;;;;;;0.62;0.62;;;;;;;-0.64;70.20;96320.94;29373;211;63015;-60
2023/02/26 00:49:53;;;;;;;0.62;0.62;;;;;;;-0.74;70.89;96319.69;29371;278;64009;-61
2023/02/26 00:50:26;;;;;;;0.60;0.60;;;;;;;-0.83;71.13;96329.09;29395;213;63008;-61
2023/02/26 00:51:38;;;;;;;0.70;0.70;;;;;;;-0.93;71.68;96323.53;29395;215;63004;-62
2023/02/26 00:52:42;;;;;;;0.80;0.80;;;;;;;-0.76;70.88;96329.78;29395;239;63005;-61
2023/02/26 00:53:42;;;;;;;1.17;1.10;;;;;;;-0.50;69.47;96317.78;29395;300;63009;-66
2023/02/26 00:54:28;;;;;;;0.70;0.70;;;;;;;-0.51;69.13;96318.00;29373;272;63005;-60
2023/02/26 00:54:59;;;;;;;0.70;0.70;;;;;;;-0.62;69.36;96324.16;29371;248;64013;-62
2023/02/26 00:55:31;;;;;;;0.60;0.60;;;;;;;-0.71;70.31;96321.91;29373;288;63004;-60
2023/02/26 00:56:03;;;;;;;0.70;0.70;;;;;;;-0.78;70.04;96321.22;29373;241;63026;-61
2023/02/26 00:56:34;;;;;;;0.60;0.60;;;;;;;-0.85;71.02;96323.19;29373;199;63004;-61
2023/02/26 00:57:05;;;;;;;0.60;0.60;;;;;;;-0.92;71.60;96330.50;29373;224;63009;-60
2023/02/26 00:57:38;;;;;;;0.60;0.60;;;;;;;-0.97;72.27;96333.03;29373;218;63004;-61
2023/02/26 00:58:10;;;;;;;0.60;0.60;;;;;;;-1.03;72.22;96331.31;29373;196;63008;-60
2023/02/26 00:58:41;;;;;;;0.60;0.60;;;;;;;-1.07;72.64;96331.00;29373;224;63005;-65
2023/02/26 00:59:12;;;;;;;0.60;0.60;;;;;;;-1.07;72.52;96330.19;29373;222;63009;-60
2023/02/26 00:59:43;;;;;;;0.60;0.60;;;;;;;-1.06;72.53;96339.78;29373;230;63005;-61
2023/02/26 01:00:16;;;;;;;0.70;0.70;;;;;;;-1.08;72.79;96336.53;29371;234;64014;-61
2023/02/26 01:00:47;;;;;;;0.65;0.65;;;;;;;-1.05;72.87;96333.41;29372;257;64005;-62
2023/02/26 01:01:18;;;;;;;0.80;0.80;;;;;;;-1.02;72.24;96330.25;29373;204;63016;-61
2023/02/26 01:01:50;;;;;;;0.60;0.60;;;;;;;-0.93;71.47;96328.88;29373;214;63005;-62
2023/02/26 01:02:22;;;;;;;0.60;0.60;;;;;;;-0.94;71.58;96335.25;29373;234;63009;-61
2023/02/26 01:02:55;;;;;;;0.60;0.60;;;;;;;-0.99;71.61;96329.81;29373;232;63004;-60
2023/02/26 01:03:27;;;;;;;0.60;0.60;;;;;;;-1.03;71.74;96326.78;29373;235;63009;-60
2023/02/26 01:04:02;;;;;;;0.70;0.70;;;;;;;-1.07;72.19;96332.84;29373;196;63008;-61
2023/02/26 01:04:37;;;;;;;0.60;0.60;;;;;;;-1.10;72.11;96327.97;29373;198;63014;-61
2023/02/26 01:05:12;;;;;;;0.60;0.60;;;;;;;-1.06;73.05;96339.78;29373;222;63008;-61
2023/02/26 01:05:48;;;;;;;0.60;0.60;;;;;;;-1.06;72.62;96334.47;29371;242;64013;-61
2023/02/26 01:06:21;;;;;;;0.60;0.60;;;;;;;-1.12;72.68;96330.88;29373;229;63012;-60
2023/02/26 01:06:56;;;;;;;0.60;0.60;;;;;;;-1.12;72.94;96335.37;29373;214;63009;-60
2023/02/26 01:07:31;;;;;;;0.60;0.60;;;;;;;-1.16;73.04;96329.72;29373;204;63005;-60
2023/02/26 01:08:19;;;;;;;0.65;0.65;;;;;;;-1.13;73.15;96339.09;29371;228;64013;-61
2023/02/26 01:09:30;;;;;;;0.60;0.60;;;;;;;-0.97;72.12;96332.22;29373;295;63005;-62
2023/02/26 01:10:02;;;;;;;0.60;0.60;;;;;;;-0.91;71.45;96337.44;29373;256;63009;-61
2023/02/26 01:10:34;;;;;;;0.70;0.70;;;;;;;-0.95;71.45;96335.47;29373;214;63010;-61
2023/02/26 01:11:07;;;;;;;0.60;0.60;;;;;;;-0.99;71.34;96335.13;29373;236;63009;-61
2023/02/26 01:11:42;;;;;;;0.70;0.70;;;;;;;-1.07;71.24;96333.66;29373;197;63004;-62
2023/02/26 01:12:16;;;;;;;0.62;0.62;;;;;;;-1.10;71.44;96333.31;29373;266;63009;-60
2023/02/26 01:12:48;;;;;;;0.70;0.70;;;;;;;-1.16;71.76;96323.59;29373;202;63004;-61
2023/02/26 01:13:20;;;;;;;0.70;0.70;;;;;;;-1.11;72.26;96337.00;29371;212;64013;-61
2023/02/26 01:13:52;;;;;;;0.70;0.70;;;;;;;-1.14;72.42;96332.16;29373;225;63005;-61
2023/02/26 01:14:25;;;;;;;0.60;0.60;;;;;;;-1.17;72.71;96332.59;29373;208;63009;-60
2023/02/26 01:14:56;;;;;;;0.60;0.60;;;;;;;-1.15;72.66;96336.66;29373;197;63005;-60
2023/02/26 01:15:29;;;;;;;0.70;0.70;;;;;;;-1.14;72.52;96332.16;29373;258;63009;-60
2023/02/26 01:16:10;;;;;;;0.70;0.70;;;;;;;-1.17;72.56;96332.59;29373;236;63005;-61
2023/02/26 01:17:21;;;;;;;0.60;0.60;;;;;;;-1.21;72.62;96331.44;29373;247;63009;-60
2023/02/26 01:18:10;;;;;;;0.70;0.70;;;;;;;-1.18;73.12;96336.31;29373;238;63004;-60
2023/02/26 01:18:52;;;;;;;0.70;0.70;;;;;;;-1.12;73.03;96335.37;29371;223;64013;-61
2023/02/26 01:20:05;;;;;;;0.70;0.70;;;;;;;-1.14;73.00;96332.16;29373;243;63004;-64
2023/02/26 01:20:45;;;;;;;0.70;0.70;;;;;;;-1.20;72.05;96331.22;29373;222;63008;-60
2023/02/26 01:21:30;;;;;;;0.70;0.70;;;;;;;-1.24;72.37;96329.25;29373;198;63004;-60
2023/02/26 01:22:24;;;;;;;0.70;0.70;;;;;;;-1.31;72.18;96326.69;29373;216;63009;-61
2023/02/26 01:23:06;;;;;;;0.70;0.70;;;;;;;-1.36;72.60;96340.69;29373;244;63005;-61
2023/02/26 01:23:40;;;;;;;0.70;0.70;;;;;;;-1.38;73.71;96342.78;29373;222;63009;-61
2023/02/26 01:24:15;;;;;;;0.60;0.60;;;;;;;-1.39;74.62;96341.16;29371;215;64009;-61
2023/02/26 01:24:53;;;;;;;0.70;0.70;;;;;;;-1.39;74.53;96338.50;29373;215;63009;-61
2023/02/26 01:25:43;;;;;;;0.77;0.77;;;;;;;-1.39;74.47;96341.16;29373;226;63004;-62
2023/02/26 01:26:32;;;;;;;0.70;0.70;;;;;;;-1.37;74.56;96333.75;29373;224;63009;-61
2023/02/26 01:27:05;;;;;;;0.70;0.70;;;;;;;-1.30;74.09;96332.84;29373;198;63000;-60
2023/02/26 01:27:37;;;;;;;0.60;0.60;;;;;;;-1.29;73.61;96335.25;29373;244;63008;-61
2023/02/26 01:28:09;;;;;;;0.70;0.70;;;;;;;-1.28;72.96;96336.06;29372;220;63005;-62
2023/02/26 01:28:41;;;;;;;0.70;0.70;;;;;;;-1.33;73.06;96333.28;29373;247;63009;-61
2023/02/26 01:29:14;;;;;;;0.70;0.70;;;;;;;-1.33;73.40;96344.75;29371;211;64009;-62
2023/02/26 01:29:46;;;;;;;0.70;0.70;;;;;;;-1.30;73.64;96335.50;29373;219;63009;-60
2023/02/26 01:30:18;;;;;;;0.70;0.70;;;;;;;-1.30;73.68;96340.81;29373;253;63005;-61
2023/02/26 01:30:53;;;;;;;0.70;0.70;;;;;;;-1.29;73.91;96334.44;29373;203;63009;-61
2023/02/26 01:31:40;;;;;;;0.70;0.70;;;;;;;-1.30;73.53;96338.16;29373;204;63005;-61
2023/02/26 01:32:43;;;;;;;0.70;0.70;;;;;;;-1.33;73.43;96333.28;29373;234;63009;-61
2023/02/26 01:33:35;;;;;;;0.70;0.70;;;;;;;-1.30;73.82;96327.50;29373;273;63017;-62
2023/02/26 01:34:18;;;;;;;0.70;0.70;;;;;;;-1.30;73.72;96332.84;29373;208;63009;-61
2023/02/26 01:35:30;;;;;;;0.70;0.70;;;;;;;-1.32;73.42;96334.91;29371;219;64008;-61
2023/02/26 01:36:16;;;;;;;0.70;0.70;;;;;;;-1.33;73.42;96333.28;29373;247;63016;-60
2023/02/26 01:37:04;;;;;;;0.70;0.70;;;;;;;-1.33;73.71;96330.62;29373;213;63005;-61
2023/02/26 01:37:52;;;;;;;0.70;0.70;;;;;;;-1.41;72.39;96326.50;29373;294;63009;-61
2023/02/26 01:38:50;;;;;;;0.70;0.70;;;;;;;-1.44;72.85;96326.94;29373;216;63005;-60
2023/02/26 01:39:36;;;;;;;0.70;0.70;;;;;;;-1.47;72.57;96322.09;29373;334;63009;-61
2023/02/26 01:40:51;;;;;;;0.70;0.70;;;;;;;-1.52;72.61;96337.94;29371;202;64009;-68
2023/02/26 01:41:46;;;;;;;0.70;0.70;;;;;;;-1.57;72.47;96332.47;29373;223;63009;-62
2023/02/26 01:42:25;;;;;;;0.70;0.70;;;;;;;-1.55;73.53;96341.84;29373;202;63004;-61
2023/02/26 01:43:05;;;;;;;0.70;0.70;;;;;;;-1.39;72.75;96335.84;29373;206;63008;-61
2023/02/26 01:44:04;;;;;;;0.70;0.70;;;;;;;-1.36;72.38;96323.91;29395;377;63011;-61
2023/02/26 01:44:54;;;;;;;0.75;0.75;;;;;;;-1.43;72.58;96332.03;29395;202;63009;-60
2023/02/26 01:45:37;;;;;;;0.70;0.70;;;;;;;-1.44;73.01;96333.06;29371;212;64009;-61
2023/02/26 01:46:59;;;;;;;0.70;0.70;;;;;;;-1.46;73.00;96340.47;29373;300;63009;-59
2023/02/26 01:47:44;;;;;;;0.70;0.70;;;;;;;-1.45;73.39;96336.78;29373;221;63004;-62
2023/02/26 01:48:35;;;;;;;0.70;0.70;;;;;;;-1.54;72.57;96338.16;29373;238;63009;-62
2023/02/26 01:49:13;;;;;;;0.70;0.70;;;;;;;-1.59;72.70;96335.37;29355;334;125004;-61
2023/02/26 01:49:45;;;;;;;0.70;0.70;;;;;;;-1.63;73.17;96344.03;29395;332;63009;-60
2023/02/26 01:50:28;;;;;;;1.00;1.00;;;;;;;-1.69;73.47;96345.75;29373;202;63000;-61
2023/02/26 01:51:00;;;;;;;0.70;0.70;;;;;;;-1.77;73.34;96348.78;29371;219;64014;-61
2023/02/26 01:51:45;;;;;;;0.70;0.70;;;;;;;-1.78;74.45;96352.47;29373;289;63005;-60
2023/02/26 01:53:23;;;;;;;0.70;0.70;;;;;;;-1.82;74.80;96348.63;29373;225;63009;-61
2023/02/26 01:53:54;;;;;;;0.70;0.70;;;;;;;-1.78;74.89;96355.13;29373;215;63005;-62
2023/02/26 01:54:32;;;;;;;0.70;0.70;;;;;;;-1.83;74.84;96341.69;29373;215;63009;-61
2023/02/26 01:55:05;;;;;;;0.70;0.70;;;;;;;-1.71;74.12;96347.84;29373;197;63009;-69
2023/02/26 01:55:36;;;;;;;0.70;0.70;;;;;;;-1.57;73.06;96343.94;29373;281;63009;-61
2023/02/26 01:56:16;;;;;;;0.70;0.70;;;;;;;-1.53;72.86;96334.44;29371;214;64009;-61
2023/02/26 01:57:12;;;;;;;0.70;0.70;;;;;;;-1.55;72.69;96336.53;29373;233;63009;-61
2023/02/26 01:57:44;;;;;;;0.68;0.68;;;;;;;-1.61;73.41;96342.75;29373;326;63004;-62
2023/02/26 01:58:17;;;;;;;0.70;0.70;;;;;;;-1.66;73.87;96344.50;29373;209;63009;-62
2023/02/26 01:58:49;;;;;;;0.70;0.70;;;;;;;-1.70;73.88;96346.78;29373;206;63005;-60
2023/02/26 01:59:23;;;;;;;0.70;0.70;;;;;;;-1.72;74.70;96354.19;29373;203;63012;-60
2023/02/26 01:59:55;;;;;;;1.90;1.83;;;;;;;-1.74;74.63;96353.62;29373;223;63005;-60
2023/02/26 02:00:26;;;;;;;0.70;0.70;;;;;;;-1.76;74.89;96353.88;29373;280;63009;-62
2023/02/26 02:00:58;;;;;;;0.70;0.70;;;;;;;-1.77;75.04;96348.78;29373;207;63000;-61
2023/02/26 02:01:29;;;;;;;0.70;0.70;;;;;;;-1.71;75.07;96353.16;29371;277;64013;-61
2023/02/26 02:02:07;;;;;;;0.60;0.60;;;;;;;-1.69;74.73;96356.41;29373;212;63008;-62
2023/02/26 02:02:39;;;;;;;0.70;0.70;;;;;;;-1.68;74.47;96350.03;29373;251;63024;-61
2023/02/26 02:03:10;;;;;;;0.70;0.70;;;;;;;-1.70;74.39;96352.13;29373;224;63004;-61
2023/02/26 02:03:42;;;;;;;0.70;0.70;;;;;;;-1.73;74.11;96348.06;29373;218;63009;-61
2023/02/26 02:04:15;;;;;;;0.70;0.70;;;;;;;-1.76;74.03;96350.37;29373;215;63004;-61
2023/02/26 02:04:48;;;;;;;1.23;1.23;;;;;;;-1.77;74.09;96348.78;29373;210;63009;-61
2023/02/26 02:05:42;;;;;;;0.60;0.60;;;;;;;-1.75;74.72;96344.84;29373;214;63004;-60
2023/02/26 02:06:23;;;;;;;0.68;0.68;;;;;;;-1.66;74.63;96355.94;29373;216;63009;-60
2023/02/26 02:06:55;;;;;;;0.70;0.70;;;;;;;-1.61;75.02;96350.75;29393;231;64002;-61
2023/02/26 02:07:26;;;;;;;0.70;0.70;;;;;;;-1.55;74.05;96347.19;29395;220;63018;-61
2023/02/26 02:07:59;;;;;;;0.70;0.70;;;;;;;-1.53;73.73;96345.09;29373;205;63010;-60
2023/02/26 02:08:34;;;;;;;0.60;0.60;;;;;;;-1.55;73.89;96347.19;29373;227;63009;-62
2023/02/26 02:09:07;;;;;;;0.70;0.70;;;;;;;-1.58;73.48;96342.31;29373;252;63005;-60
2023/02/26 02:09:39;;;;;;;0.70;0.70;;;;;;;-1.60;73.73;96335.59;29373;244;63009;-60
2023/02/26 02:10:11;;;;;;;0.70;0.70;;;;;;;-1.63;73.85;96344.84;29373;206;63004;-61
2023/02/26 02:10:47;;;;;;;0.70;0.70;;;;;;;-1.52;73.39;96340.59;29373;199;63009;-63
2023/02/26 02:11:19;;;;;;;0.70;0.70;;;;;;;-1.38;72.04;96340.13;29373;200;63004;-59
2023/02/26 02:12:26;;;;;;;0.70;0.70;;;;;;;-1.26;71.58;96323.34;29373;210;63024;-59
2023/02/26 02:13:49;;;;;;;0.70;0.70;;;;;;;-1.30;71.38;96327.50;29371;238;64008;-60
2023/02/26 02:14:36;;;;;;;0.70;0.70;;;;;;;-1.44;71.76;96333.06;29395;204;63009;-60
2023/02/26 02:15:18;;;;;;;0.70;0.70;;;;;;;-1.45;71.91;96331.47;29394;219;64009;-61
2023/02/26 02:16:26;;;;;;;0.70;0.70;;;;;;;-1.40;72.20;96334.25;29373;228;63009;-61
2023/02/26 02:17:33;;;;;;;0.90;0.90;;;;;;;-1.30;71.42;96325.66;29373;196;63005;-60
2023/02/26 02:18:52;;;;;;;0.70;0.70;;;;;;;-1.48;71.79;96334.56;29371;225;64013;-60
2023/02/26 02:20:26;;;;;;;0.70;0.70;;;;;;;-1.67;72.08;96338.34;29371;198;64009;-61
2023/02/26 02:21:58;;;;;;;0.70;0.70;;;;;;;-1.89;73.28;96347.91;29373;197;63009;-61
2023/02/26 02:23:15;;;;;;;0.70;0.70;;;;;;;-1.88;74.06;96358.31;29373;207;63005;-59
2023/02/26 02:24:14;;;;;;;0.70;0.70;;;;;;;-1.88;74.18;96363.66;29371;208;64013;-59
2023/02/26 02:25:15;;;;;;;0.70;0.70;;;;;;;-1.91;74.09;96357.97;29373;236;63004;-60
2023/02/26 02:26:26;;;;;;;0.70;0.70;;;;;;;-1.95;74.26;96359.47;29373;218;63009;-61
2023/02/26 02:27:19;;;;;;;0.70;0.70;;;;;;;-1.94;74.69;96358.41;29371;283;64013;-60
2023/02/26 02:28:23;;;;;;;0.70;0.70;;;;;;;-1.97;74.20;96361.53;29371;196;64008;-60
2023/02/26 02:29:31;;;;;;;0.70;0.70;;;;;;;-1.97;74.73;96364.19;29373;297;63005;-60
2023/02/26 02:30:28;;;;;;;0.70;0.70;;;;;;;-1.99;74.33;96367.06;29371;362;64013;-61
2023/02/26 02:31:20;;;;;;;0.70;0.70;;;;;;;-2.03;74.52;96371.22;29373;199;63009;-60
2023/02/26 02:32:29;;;;;;;0.70;0.70;;;;;;;-2.04;74.99;96359.78;29393;215;64009;-60
2023/02/26 02:33:07;;;;;;;0.60;0.60;;;;;;;-2.03;75.33;96364.06;29394;206;64013;-60
2023/02/26 02:34:54;;;;;;;0.66;0.66;;;;;;;-2.11;75.24;96361.75;88178;202;64005;-60
2023/02/26 02:35:41;;;;;;;0.70;0.70;;;;;;;-2.16;75.85;96366.09;29416;335;64009;-61
2023/02/26 02:36:25;;;;;;;0.65;0.65;;;;;;;-2.20;75.83;96371.06;29395;276;63004;-61
2023/02/26 02:37:45;;;;;;;0.70;0.70;;;;;;;-2.21;76.31;96369.44;29373;205;63008;-61
2023/02/26 02:38:58;;;;;;;0.70;0.70;;;;;;;-2.19;76.33;96372.69;29373;374;63005;-60
2023/02/26 02:39:31;;;;;;;;;;;;;;;-2.19;76.20;96371.88;29974;982;28000;-61
2023/02/26 02:40:25;;;;;;;0.70;0.70;;;;;;;-2.17;76.38;96365.28;29399;203;64013;-60
2023/02/26 02:41:19;;;;;;;0.70;0.70;;;;;;;-2.09;75.96;96369.50;29373;199;63004;-61
2023/02/26 02:42:05;;;;;;;0.70;0.70;;;;;;;-2.10;75.33;96366.03;29373;369;63009;-60
2023/02/26 02:42:46;;;;;;;0.70;0.70;;;;;;;-2.12;75.29;96368.09;29373;296;63004;-61
2023/02/26 02:43:20;;;;;;;;;;;;;;;-2.13;75.24;96366.47;29974;983;28000;-61
2023/02/26 02:43:52;;;;;;;0.65;0.65;;;;;;;-2.13;75.25;96369.12;29400;317;63014;-61
2023/02/26 02:44:27;;;;;;;0.70;0.70;;;;;;;-2.12;75.29;96378.72;29373;218;63004;-60
2023/02/26 02:45:11;;;;;;;0.70;0.70;;;;;;;-2.10;75.63;96376.66;29373;268;63008;-60
2023/02/26 02:45:56;;;;;;;0.70;0.70;;;;;;;-2.10;76.01;96371.34;29371;206;64009;-60
2023/02/26 02:46:31;;;;;;;0.80;0.80;;;;;;;-2.08;76.07;96374.56;29373;209;63009;-60
2023/02/26 02:47:04;;;;;;;0.70;0.70;;;;;;;-2.08;75.71;96376.44;29371;213;64009;-61
2023/02/26 02:47:41;;;;;;;0.70;0.70;;;;;;;-2.12;75.39;96373.41;29373;196;63009;-61
2023/02/26 02:48:30;;;;;;;0.70;0.70;;;;;;;-2.11;75.39;96372.37;29373;211;63005;-61
2023/02/26 02:49:06;;;;;;;0.98;0.98;;;;;;;-2.11;75.56;96368.91;29373;247;63012;-61
2023/02/26 02:49:51;;;;;;;0.70;0.70;;;;;;;-2.10;75.34;96378.50;29373;260;63007;-61
2023/02/26 02:50:33;;;;;;;0.70;0.70;;;;;;;-2.05;75.67;96379.41;29373;372;63014;-60
2023/02/26 02:51:17;;;;;;;0.70;0.70;;;;;;;-2.07;75.07;96378.84;29373;223;63004;-61
2023/02/26 02:51:55;;;;;;;0.60;0.60;;;;;;;-2.10;75.01;96376.66;29373;294;63027;-61
2023/02/26 02:52:45;;;;;;;0.70;0.70;;;;;;;-2.12;75.35;96372.59;29371;203;64009;-60
2023/02/26 02:53:36;;;;;;;0.70;0.70;;;;;;;-2.13;75.65;96377.09;29373;203;63005;-61
2023/02/26 02:54:14;;;;;;;0.70;0.70;;;;;;;-2.14;75.79;96377.31;29395;205;63005;-61
2023/02/26 02:55:05;;;;;;;0.70;0.70;;;;;;;-2.17;75.92;96381.25;29395;259;63019;-60
2023/02/26 02:55:43;;;;;;;0.70;0.70;;;;;;;-2.19;76.50;96378.00;29373;200;63009;-61
2023/02/26 02:56:24;;;;;;;0.70;0.70;;;;;;;-2.21;76.47;96374.75;29373;288;63009;-60
2023/02/26 02:57:08;;;;;;;0.70;0.70;;;;;;;-2.20;76.29;96378.22;29373;202;63004;-62
2023/02/26 02:57:51;;;;;;;0.70;0.70;;;;;;;-2.21;75.97;96380.06;29371;213;64013;-60
2023/02/26 02:58:28;;;;;;;0.70;0.70;;;;;;;-2.23;75.99;96382.13;29371;205;64009;-61
2023/02/26 02:59:31;;;;;;;0.70;0.70;;;;;;;-2.27;75.80;96375.63;29371;288;64013;-61
2023/02/26 03:00:09;;;;;;;0.70;0.70;;;;;;;-2.28;76.27;96379.34;29373;200;63005;-62
2023/02/26 03:00:48;;;;;;;0.68;0.68;;;;;;;-2.28;76.91;96387.31;29373;214;63028;-61
2023/02/26 03:01:25;;;;;;;0.70;0.70;;;;;;;-2.31;76.91;96381.63;29373;293;63005;-60
2023/02/26 03:02:02;;;;;;;0.70;0.70;;;;;;;-2.35;77.06;96378.59;29373;228;63009;-62
2023/02/26 03:02:58;;;;;;;0.70;0.70;;;;;;;-2.34;77.01;96382.88;29373;276;63005;-62
2023/02/26 03:03:54;;;;;;;0.70;0.70;;;;;;;-2.31;77.46;96386.94;29373;207;63004;-61
2023/02/26 03:04:25;;;;;;;0.70;0.70;;;;;;;-2.29;77.22;96380.37;29371;349;64013;-60
2023/02/26 03:04:56;;;;;;;0.68;0.68;;;;;;;-2.29;77.28;96383.03;29373;202;63004;-62
2023/02/26 03:05:28;;;;;;;0.70;0.70;;;;;;;-2.29;77.57;96383.03;29373;199;63009;-76
2023/02/26 03:06:00;;;;;;;0.70;0.70;;;;;;;-2.31;77.78;96390.41;29373;280;63004;-62
2023/02/26 03:06:32;;;;;;;0.70;0.70;;;;;;;-2.32;77.52;96388.78;29373;271;63015;-62
2023/02/26 03:07:04;;;;;;;0.70;0.70;;;;;;;-2.34;77.66;96382.88;29373;317;63005;-62
2023/02/26 03:07:42;;;;;;;0.60;0.60;;;;;;;-2.36;77.46;96388.41;29373;211;63009;-62
2023/02/26 03:08:20;;;;;;;0.70;0.70;;;;;;;-2.37;77.72;96381.47;29373;265;63010;-62
2023/02/26 03:08:53;;;;;;;0.70;0.70;;;;;;;-2.34;77.78;96388.19;29373;265;63009;-62
2023/02/26 03:09:24;;;;;;;0.70;0.70;;;;;;;-2.30;77.70;96391.22;29373;206;63005;-60
2023/02/26 03:09:56;;;;;;;0.70;0.70;;;;;;;-2.32;77.01;96382.66;29371;236;64013;-61
2023/02/26 03:10:29;;;;;;;0.70;0.70;;;;;;;-2.35;76.47;96383.91;29373;240;63005;-61
2023/02/26 03:11:00;;;;;;;0.70;0.70;;;;;;;-2.39;76.57;96385.41;29373;310;63009;-62
2023/02/26 03:11:32;;;;;;;0.70;0.70;;;;;;;-2.42;77.35;96384.00;29371;226;64009;-61
2023/02/26 03:12:04;;;;;;;0.70;0.70;;;;;;;-2.45;77.20;96383.66;29373;237;63009;-62
2023/02/26 03:12:36;;;;;;;0.70;0.70;;;;;;;-2.47;77.69;96386.53;29373;277;63004;-61
2023/02/26 03:13:16;;;;;;;0.70;0.70;;;;;;;-2.38;78.11;96392.34;29373;198;63009;-62
2023/02/26 03:13:49;;;;;;;0.70;0.70;;;;;;;-2.32;77.71;96383.47;29395;327;63000;-62
2023/02/26 03:14:21;;;;;;;0.70;0.70;;;;;;;-2.24;76.68;96390.31;29394;231;64014;-62
2023/02/26 03:14:53;;;;;;;0.70;0.70;;;;;;;-2.23;76.37;96390.09;29373;197;63016;-72
2023/02/26 03:15:45;;;;;;;0.70;0.70;;;;;;;-2.24;76.15;96391.16;29373;197;63009;-61
2023/02/26 03:17:01;;;;;;;0.70;0.70;;;;;;;-2.24;76.50;96396.47;29373;327;63000;-74
2023/02/26 03:18:06;;;;;;;0.70;0.70;;;;;;;-2.26;76.22;96387.91;29373;275;63009;-62